< < Back
Terminal Aerodrome Forecast


Current Version              Previous Versions:   1  2  3  4  5  6  7  8  9  

Terminal Aerodrome Forecast

434
FTUS42 KGSP 301001 AAD
TAFCLT
TAF AMD
KCLT 301001Z 3010/0106 01004KT 5SM BR OVC012
      TEMPO 3010/3014 3SM BR BKN008
     FM301400 08004KT P6SM SCT050
     FM301700 12005KT P6SM VCSH BKN050 PROB30 3020/0102 4SM -TSRA
      OVC025CB=



Latest METAR

632
SAUS70 KWBC 301200 RRX
MTRCLT
METAR KCLT 301152Z 05005KT 2 1/2SM BR OVC004 22/20 A3002 RMK AO2 SFC VIS
4 SLP159 70099 T02170200 10222 20200 51012


USA.gov is the U.S. government's official web portal to all federal, state and local government web resources and services.